Date,TemperatureHighF,TemperatureAvgF,TemperatureLowF,DewpointHighF,DewpointAvgF,DewpointLowF,HumidityHigh,HumidityAvg,HumidityLow,PressureMaxIn,PressureMinIn,WindSpeedMaxMPH,WindSpeedAvgMPH,GustSpeedMaxMPH,PrecipitationSumIn
2013-3-1,41.0,35.7,30.0,35.7,30.1,26.3,100,81,65,29.67,29.52,16,2,16,0.00
2013-3-2,40.8,34.9,30.0,29.3,26.7,24.6,81,72,62,29.67,29.61,13,2,13,0.00
2013-3-3,41.0,33.4,29.8,31.2,27.4,23.7,96,79,64,29.64,29.55,14,2,14,0.00
2013-3-4,38.1,31.9,26.2,26.2,23.3,19.4,82,71,57,29.74,29.57,24,5,24,0.00
2013-3-5,45.0,34.6,28.0,30.7,26.3,21.4,92,72,56,30.06,29.74,13,2,13,0.00
2013-3-6,37.3,34.2,31.7,35.4,32.1,29.1,100,92,75,30.09,30.03,21,4,21,0.17
2013-3-7,32.5,30.1,28.3,30.7,28.8,26.7,99,95,90,30.06,29.97,21,5,25,0.09
2013-3-8,33.2,30.0,27.8,33.2,29.9,27.5,100,100,97,30.15,29.92,18,3,18,0.05
2013-3-9,47.5,34.3,26.4,32.6,26.2,21.1,100,74,43,30.35,30.14,15,2,15,0.31
2013-3-10,42.3,33.2,24.1,33.8,29.6,23.6,100,87,68,30.41,30.28,8,1,8,0.01
2013-3-11,52.7,40.4,33.0,41.0,35.9,30.6,100,85,61,30.32,30.14,11,2,11,0.00
2013-3-12,53.5,47.8,40.3,52.2,47.6,40.3,100,99,92,30.15,29.72,23,3,23,0.39
2013-3-13,49.6,41.1,32.6,49.3,31.8,21.4,100,72,42,29.78,29.70,17,3,17,0.00
2013-3-14,34.4,28.8,20.4,24.3,15.8,6.8,74,58,45,29.83,29.71,21,4,23,0.00
2013-3-15,40.0,28.3,17.6,26.9,15.1,6.5,81,58,36,29.87,29.62,19,3,19,0.00
2013-3-16,38.4,31.5,25.3,26.8,17.8,11.0,82,58,36,29.87,29.66,17,2,17,0.00
2013-3-17,36.6,28.4,21.5,17.1,11.9,5.1,75,52,31,30.30,29.86,23,2,23,0.00
2013-3-18,37.4,26.3,13.8,25.3,8.7,0.9,92,49,30,30.45,30.22,11,2,11,0.00
2013-3-19,33.4,30.2,26.2,33.4,29.9,24.8,100,99,92,30.22,29.61,16,3,16,0.30
2013-3-20,36.1,29.0,22.5,26.4,21.8,18.4,100,76,53,29.80,29.69,22,2,22,0.42
2013-3-21,34.7,27.9,22.2,27.1,21.1,16.7,95,76,56,29.81,29.59,10,1,10,0.11
2013-3-22,38.9,30.9,24.9,24.9,19.7,16.1,95,63,46,29.74,29.59,20,3,20,0.08
2013-3-23,41.0,33.1,26.1,23.1,20.5,18.2,78,60,44,29.79,29.63,26,4,26,0.02
2013-3-24,46.6,36.4,29.5,27.5,23.3,19.2,73,60,45,29.81,29.72,17,2,17,0.00
2013-3-25,41.7,34.4,27.4,32.6,28.1,22.8,85,78,68,29.76,29.51,13,2,13,0.00
2013-3-26,48.6,38.4,32.3,30.8,26.2,20.9,81,63,40,29.78,29.53,15,2,15,0.00
2013-3-27,52.9,40.8,30.1,30.4,25.0,19.8,70,54,38,29.88,29.74,19,2,20,0.00
2013-3-28,47.9,40.4,33.8,36.5,32.8,30.2,98,76,52,30.02,29.86,14,2,14,0.00
2013-3-29,56.2,44.1,34.5,36.5,32.1,29.6,86,64,39,30.05,29.96,17,2,17,0.00
2013-3-30,56.2,44.6,34.1,32.6,25.5,18.4,81,51,27,30.10,29.99,18,2,18,0.00
2013-3-31,58.1,44.9,31.3,39.7,27.5,19.2,90,53,30,30.11,29.72,16,2,16,0.05